Time;durP1;ratioP1;P1;durP2;ratioP2;P2;SDS_P1;SDS_P2;PMS_P1;PMS_P2;Temp;Humidity;BMP_temperature;BMP_pressure;BME280_temperature;BME280_humidity;BME280_pressure;Samples;Min_cycle;Max_cycle;Signal;HPM_P1;HPM_P2
2022/08/15 00:01:24;;;;;;;10.10;9.10;;;;;;;23.72;59.50;97801.84;5062473;28;20024;-77
2022/08/15 00:03:53;;;;;;;9.75;8.32;;;;;;;23.50;59.24;97770.63;5059436;28;20027;-77
2022/08/15 00:06:23;;;;;;;8.57;7.88;;;;;;;23.62;59.43;97786.06;5061802;28;20028;-77
2022/08/15 00:08:52;;;;;;;10.68;9.70;;;;;;;23.65;59.32;97799.78;5061057;28;20035;-77
2022/08/15 00:11:25;;;;;;;9.25;8.45;;;;;;;23.68;59.55;97798.22;5060020;28;20167;-77
2022/08/15 00:13:56;;;;;;;9.15;8.43;;;;;;;23.57;59.48;97783.59;5060290;28;20456;-77
2022/08/15 00:16:22;;;;;;;8.55;7.85;;;;;;;23.65;59.24;97797.03;5058415;28;20025;-77
2022/08/15 00:18:49;;;;;;;9.98;9.13;;;;;;;23.54;59.30;97787.06;5060023;28;20033;-77
2022/08/15 00:21:17;;;;;;;9.10;8.32;;;;;;;23.64;59.45;97789.22;5077139;28;20093;-76
2022/08/15 00:23:43;;;;;;;8.95;8.15;;;;;;;23.52;59.58;97792.09;5066577;28;20024;-77
2022/08/15 00:26:10;;;;;;;9.60;8.63;;;;;;;23.46;59.51;97772.50;5056420;28;20016;-77
2022/08/15 00:28:37;;;;;;;10.48;9.48;;;;;;;23.50;59.37;97783.50;5062571;28;20130;-77
2022/08/15 00:31:05;;;;;;;9.27;8.38;;;;;;;23.26;60.43;97781.81;5058295;28;20036;-77
2022/08/15 00:33:31;;;;;;;9.65;8.75;;;;;;;23.18;61.45;97782.78;5060677;28;20032;-77
2022/08/15 00:35:57;;;;;;;9.40;8.50;;;;;;;23.15;60.38;97774.53;5064121;28;20021;-77
2022/08/15 00:38:25;;;;;;;10.85;9.80;;;;;;;23.32;59.98;97777.66;5058872;28;20537;-77
2022/08/15 00:43:51;;;;;;;10.00;9.10;;;;;;;23.40;59.35;97773.94;5061766;28;20101;-77
2022/08/15 00:46:17;;;;;;;10.68;8.30;;;;;;;23.42;59.75;97771.66;5059992;28;20047;-77
2022/08/15 00:48:43;;;;;;;10.82;9.60;;;;;;;23.33;59.52;97762.09;5064650;28;20060;-77
2022/08/15 00:51:23;;;;;;;9.80;8.90;;;;;;;23.37;59.71;97776.59;5057743;28;20117;-77
2022/08/15 00:54:05;;;;;;;10.20;9.30;;;;;;;23.41;59.69;97774.72;5058217;28;20095;-77
2022/08/15 00:56:37;;;;;;;10.32;9.40;;;;;;;23.35;59.71;97771.50;5066307;28;20501;-77
2022/08/15 00:59:07;;;;;;;10.80;9.80;;;;;;;23.40;59.68;97782.13;5059347;28;20037;-77
2022/08/15 01:01:32;;;;;;;10.10;9.13;;;;;;;23.26;59.59;97770.13;5060860;28;20086;-77
2022/08/15 01:03:58;;;;;;;10.38;8.57;;;;;;;23.32;59.78;97776.84;5061739;28;20028;-77
2022/08/15 01:06:24;;;;;;;9.98;9.10;;;;;;;23.33;59.50;97778.44;5059619;28;20054;-77
2022/08/15 01:08:50;;;;;;;10.73;9.50;;;;;;;23.29;59.76;97766.66;5060465;28;20048;-77
2022/08/15 01:11:21;;;;;;;10.23;9.15;;;;;;;23.26;59.99;97768.19;5060893;28;20033;-77
2022/08/15 01:13:49;;;;;;;11.05;10.05;;;;;;;23.27;59.76;97766.22;5064283;28;20430;-77
2022/08/15 01:16:15;;;;;;;9.88;9.07;;;;;;;23.27;59.74;97769.75;5046076;28;20048;-77
2022/08/15 01:18:41;;;;;;;9.88;8.98;;;;;;;23.22;59.84;97769.25;5054860;28;20063;-77
2022/08/15 01:21:24;;;;;;;10.48;9.50;;;;;;;23.22;59.85;97770.03;5059227;28;20403;-77
2022/08/15 01:24:09;;;;;;;10.70;9.55;;;;;;;23.17;59.83;97764.88;5073166;28;20111;-77
2022/08/15 01:26:37;;;;;;;13.13;9.35;;;;;;;23.20;59.82;97761.41;5059313;28;20115;-76
2022/08/15 01:29:06;;;;;;;10.65;9.55;;;;;;;23.17;60.04;97766.81;5056706;28;20037;-76
2022/08/15 01:31:32;;;;;;;9.45;8.55;;;;;;;23.23;59.69;97763.44;5057740;28;20051;-76
2022/08/15 01:33:59;;;;;;;9.80;8.93;;;;;;;23.21;59.53;97760.28;5042932;28;20855;-76
2022/08/15 01:36:27;;;;;;;10.93;10.00;;;;;;;23.03;59.62;97738.13;5057667;28;20028;-76
2022/08/15 01:39:19;;;;;;;10.93;9.93;;;;;;;23.05;59.93;97752.16;5055125;28;20044;-76
2022/08/15 01:41:59;;;;;;;11.10;9.95;;;;;;;23.06;59.90;97752.97;5055302;28;20032;-76
2022/08/15 01:44:40;;;;;;;10.45;9.55;;;;;;;23.07;59.61;97754.53;5064927;28;20033;-76
2022/08/15 01:47:23;;;;;;;11.07;10.07;;;;;;;23.05;59.95;97746.72;5053674;28;20025;-76
2022/08/15 01:49:54;;;;;;;11.27;9.85;;;;;;;23.03;59.79;97748.22;5068843;28;20036;-77
2022/08/15 01:52:24;;;;;;;11.68;9.70;;;;;;;22.93;59.57;97744.13;5051312;28;20029;-77
2022/08/15 01:54:54;;;;;;;10.82;9.82;;;;;;;22.64;61.66;97735.69;5056907;28;20067;-77
2022/08/15 01:57:21;;;;;;;9.88;8.98;;;;;;;22.87;59.97;97750.97;5061657;28;20059;-76
2022/08/15 01:59:54;;;;;;;13.25;12.05;;;;;;;22.60;61.80;97751.94;5062423;28;20025;-77
2022/08/15 02:02:20;;;;;;;10.05;9.15;;;;;;;22.81;60.17;97744.25;5062095;28;20040;-76
2022/08/15 02:04:46;;;;;;;11.07;10.00;;;;;;;22.47;59.86;97679.72;5061139;28;20032;-76
2022/08/15 02:07:18;;;;;;;10.48;9.45;;;;;;;22.92;59.90;97747.19;5062035;28;20036;-76
2022/08/15 02:09:48;;;;;;;10.70;9.70;;;;;;;22.91;59.71;97740.97;5065017;28;20036;-77
2022/08/15 02:12:18;;;;;;;11.32;10.27;;;;;;;22.89;59.97;97739.75;5064506;28;20075;-76
2022/08/15 02:14:44;;;;;;;10.52;9.43;;;;;;;22.88;59.80;97744.41;5055843;28;20037;-77
2022/08/15 02:17:09;;;;;;;9.77;8.85;;;;;;;22.79;59.99;97726.69;5043362;28;20025;-77
2022/08/15 02:19:37;;;;;;;10.55;9.55;;;;;;;22.85;60.56;97730.72;5045145;28;20037;-77
2022/08/15 02:22:08;;;;;;;11.00;10.00;;;;;;;22.75;60.35;97725.81;5057410;28;20325;-77
2022/08/15 02:24:35;;;;;;;10.93;9.88;;;;;;;22.82;60.09;97734.16;5063911;28;20385;-77
2022/08/15 02:27:01;;;;;;;13.25;10.70;;;;;;;22.78;60.10;97731.34;5055949;28;20032;-77
2022/08/15 02:29:28;;;;;;;10.25;9.35;;;;;;;22.73;60.42;97728.91;5058710;28;20103;-77
2022/08/15 02:31:56;;;;;;;11.23;10.27;;;;;;;22.32;62.68;97726.75;5063648;28;20053;-77
2022/08/15 02:34:22;;;;;;;11.40;10.25;;;;;;;22.17;61.89;97722.88;5063182;28;20392;-77
2022/08/15 02:36:48;;;;;;;11.05;10.05;;;;;;;21.95;62.47;97692.81;5070494;28;20016;-77
2022/08/15 02:39:14;;;;;;;11.85;10.70;;;;;;;22.46;60.84;97724.34;5043900;28;20029;-77
2022/08/15 02:41:43;;;;;;;11.18;10.18;;;;;;;22.53;60.43;97707.41;5061148;28;20073;-77
2022/08/15 02:44:11;;;;;;;11.05;10.00;;;;;;;22.07;61.60;97657.38;5069892;28;20430;-77
2022/08/15 02:46:37;;;;;;;10.85;9.75;;;;;;;22.65;60.31;97718.22;5066312;28;20079;-77
2022/08/15 02:49:06;;;;;;;10.75;9.70;;;;;;;22.61;60.43;97711.88;5058026;28;20074;-77
2022/08/15 02:51:31;;;;;;;10.05;9.15;;;;;;;22.50;60.48;97699.97;5067710;28;20719;-77
2022/08/15 02:53:57;;;;;;;11.25;10.25;;;;;;;22.49;60.46;97691.03;5063866;28;20047;-77
2022/08/15 02:56:26;;;;;;;10.38;9.38;;;;;;;22.54;60.54;97706.28;5070704;28;20033;-77
2022/08/15 02:58:52;;;;;;;12.52;11.10;;;;;;;22.20;62.54;97699.66;5065428;28;20048;-77
2022/08/15 03:01:20;;;;;;;11.07;9.98;;;;;;;22.34;60.43;97684.44;5047261;28;20526;-77
2022/08/15 03:03:51;;;;;;;11.82;10.45;;;;;;;22.41;60.66;97693.94;5064461;28;20094;-77
2022/08/15 03:06:19;;;;;;;12.20;10.80;;;;;;;22.38;60.64;97681.84;5049628;28;20090;-77
2022/08/15 03:08:45;;;;;;;10.75;9.70;;;;;;;22.43;60.85;97697.88;5059522;28;20392;-77
2022/08/15 03:11:12;;;;;;;11.60;10.50;;;;;;;22.39;61.04;97689.63;5065300;28;20036;-77
2022/08/15 03:13:40;;;;;;;12.05;10.95;;;;;;;22.39;60.86;97686.91;5064236;28;20078;-77
2022/08/15 03:16:07;;;;;;;11.40;10.32;;;;;;;22.30;60.92;97682.81;5065088;28;20021;-77
2022/08/15 03:18:34;;;;;;;11.10;10.10;;;;;;;22.23;61.49;97686.16;5045457;28;20036;-77
2022/08/15 03:21:04;;;;;;;12.13;10.93;;;;;;;21.93;62.58;97657.06;5056325;28;20082;-77
2022/08/15 03:23:32;;;;;;;13.27;11.98;;;;;;;21.15;65.54;97695.69;5058294;28;20408;-77
2022/08/15 03:25:59;;;;;;;15.10;13.30;;;;;;;20.59;67.58;97705.66;5063753;28;20028;-77
2022/08/15 03:28:28;;;;;;;13.18;11.88;;;;;;;20.66;67.43;97703.13;5058812;28;20040;-77
2022/08/15 03:30:56;;;;;;;13.30;11.98;;;;;;;20.56;67.06;97698.19;5046930;28;20048;-77
2022/08/15 03:33:22;;;;;;;11.90;10.75;;;;;;;21.54;63.24;97696.75;5059971;28;20056;-77
2022/08/15 03:35:49;;;;;;;11.50;10.43;;;;;;;21.59;62.36;97663.91;5052597;28;20384;-76
2022/08/15 03:38:15;;;;;;;12.30;11.00;;;;;;;21.90;61.49;97682.22;5065338;28;20067;-77
2022/08/15 03:40:44;;;;;;;10.60;9.52;;;;;;;21.85;61.60;97696.84;5061172;28;20029;-77
2022/08/15 03:43:15;;;;;;;10.93;9.57;;;;;;;22.02;61.49;97712.78;5068908;28;20048;-77
2022/08/15 03:45:50;;;;;;;10.95;9.95;;;;;;;21.94;61.20;97692.03;5062730;28;20032;-77
2022/08/15 03:48:21;;;;;;;18.05;10.80;;;;;;;22.02;61.33;97699.22;5063623;28;20131;-77
2022/08/15 03:50:51;;;;;;;12.18;9.93;;;;;;;22.03;61.29;97700.81;5060480;28;20495;-77
2022/08/15 03:53:17;;;;;;;24.27;12.65;;;;;;;22.03;61.37;97683.69;5067112;28;20033;-77
2022/08/15 03:55:42;;;;;;;12.80;10.18;;;;;;;21.97;61.44;97690.53;5067140;28;20107;-77
2022/08/15 03:58:08;;;;;;;11.88;10.73;;;;;;;21.97;61.51;97699.50;5051577;28;20087;-77
2022/08/15 04:00:44;;;;;;;12.48;11.20;;;;;;;21.05;65.29;97706.25;5059221;28;20498;-77
2022/08/15 04:03:14;;;;;;;12.63;11.32;;;;;;;21.56;62.89;97691.75;5065894;28;20168;-77
2022/08/15 04:05:42;;;;;;;13.35;10.77;;;;;;;21.81;62.11;97693.22;5063493;28;20025;-77
2022/08/15 04:08:10;;;;;;;12.30;11.00;;;;;;;21.79;61.68;97671.03;5059530;28;20429;-77
2022/08/15 04:10:37;;;;;;;12.60;11.43;;;;;;;21.99;61.48;97680.91;5058544;28;20028;-77
2022/08/15 04:13:06;;;;;;;76.75;17.20;;;;;;;21.95;61.50;97687.38;5051065;28;20373;-77
2022/08/15 04:15:32;;;;;;;16.92;11.65;;;;;;;21.65;63.89;97698.63;5050676;28;20029;-77
2022/08/15 04:17:57;;;;;;;11.70;10.43;;;;;;;21.60;62.40;97696.16;5058119;28;20029;-77
2022/08/15 04:20:24;;;;;;;12.18;10.98;;;;;;;21.92;61.62;97694.31;5077208;28;20099;-77
2022/08/15 04:22:50;;;;;;;12.25;11.05;;;;;;;21.99;61.49;97697.22;5062269;28;20020;-77
2022/08/15 04:25:21;;;;;;;10.68;9.77;;;;;;;21.99;61.48;97688.25;5063386;28;20055;-77
2022/08/15 04:27:52;;;;;;;10.75;9.65;;;;;;;22.02;61.75;97695.69;5060041;28;20419;-77
2022/08/15 04:30:19;;;;;;;12.23;11.02;;;;;;;21.81;63.18;97701.38;5059463;28;20521;-77
2022/08/15 04:32:45;;;;;;;16.02;12.27;;;;;;;21.31;64.81;97690.31;5065592;28;20388;-77
2022/08/15 04:35:11;;;;;;;59.22;15.63;;;;;;;21.36;63.72;97696.28;5034163;28;20032;-77
2022/08/15 04:37:39;;;;;;;12.07;10.98;;;;;;;21.81;62.12;97687.78;5045843;28;20020;-77
2022/08/15 04:40:06;;;;;;;11.50;10.50;;;;;;;21.88;62.05;97693.44;5068904;28;20028;-77
2022/08/15 04:42:32;;;;;;;11.05;10.07;;;;;;;21.82;61.80;97677.72;5064274;28;20086;-77
2022/08/15 04:44:57;;;;;;;11.15;10.05;;;;;;;21.67;62.98;97690.13;5062841;28;20099;-76
2022/08/15 04:47:23;;;;;;;11.73;10.52;;;;;;;21.84;61.99;97686.34;5073352;28;20537;-76
2022/08/15 04:49:48;;;;;;;12.27;10.25;;;;;;;21.87;61.73;97677.47;5062736;28;20040;-77
2022/08/15 04:52:19;;;;;;;11.70;10.70;;;;;;;22.04;61.64;97690.72;5056749;28;20033;-77
2022/08/15 04:54:46;;;;;;;11.45;10.43;;;;;;;21.97;61.92;97688.63;5048197;28;20052;-76
2022/08/15 04:57:13;;;;;;;12.07;10.90;;;;;;;21.78;61.72;97672.16;5069776;28;20028;-76
2022/08/15 04:59:41;;;;;;;12.30;11.13;;;;;;;21.95;61.84;97690.09;5068643;28;20526;-76
2022/08/15 05:02:10;;;;;;;12.38;10.82;;;;;;;22.00;61.74;97695.25;5065424;28;20024;-76
2022/08/15 05:04:36;;;;;;;12.00;10.48;;;;;;;21.99;62.08;97683.63;5067992;28;20029;-76
2022/08/15 05:07:02;;;;;;;13.10;11.80;;;;;;;21.69;61.62;97636.22;5063940;28;20047;-77
2022/08/15 05:09:27;;;;;;;11.38;10.23;;;;;;;22.02;61.80;97691.06;5065667;28;20412;-77
2022/08/15 05:11:53;;;;;;;11.90;10.75;;;;;;;22.04;61.61;97680.63;5074437;28;20461;-76
2022/08/15 05:14:19;;;;;;;12.18;10.52;;;;;;;22.02;61.40;97665.81;5065745;28;20074;-76
2022/08/15 05:16:44;;;;;;;11.07;10.07;;;;;;;22.04;61.58;97686.06;5058774;28;20472;-76
2022/08/15 05:19:10;;;;;;;11.27;10.20;;;;;;;21.62;65.08;97682.25;5053212;28;20028;-76
2022/08/15 05:21:38;;;;;;;12.45;11.30;;;;;;;21.48;63.64;97668.28;5065978;28;20025;-77
2022/08/15 05:24:03;;;;;;;13.45;12.13;;;;;;;21.60;66.68;97684.53;5064049;28;20052;-76
2022/08/15 05:26:29;;;;;;;11.82;10.68;;;;;;;21.43;64.67;97682.09;5040158;28;20106;-76
2022/08/15 05:28:55;;;;;;;12.73;11.32;;;;;;;21.63;66.36;97690.03;5053591;28;20507;-76
2022/08/15 05:31:20;;;;;;;13.50;12.20;;;;;;;21.41;68.33;97682.47;5091063;28;20106;-76
2022/08/15 05:33:46;;;;;;;13.43;11.60;;;;;;;21.32;66.35;97662.81;5061525;28;20475;-77
2022/08/15 05:36:13;;;;;;;13.55;12.10;;;;;;;21.43;67.61;97672.03;5062964;28;20036;-77
2022/08/15 05:38:46;;;;;;;19.60;13.27;;;;;;;21.09;68.87;97683.50;5064693;28;20034;-77
2022/08/15 05:41:33;;;;;;;13.73;12.43;;;;;;;21.26;68.25;97683.22;5077871;28;20437;-77
2022/08/15 05:44:16;;;;;;;11.55;10.35;;;;;;;21.58;64.04;97679.41;5065960;28;20017;-77
2022/08/15 05:46:53;;;;;;;11.02;10.05;;;;;;;21.94;62.29;97661.34;5067898;28;20120;-77
2022/08/15 05:49:45;;;;;;;11.55;10.45;;;;;;;22.20;62.04;97688.78;5067299;28;20039;-77
2022/08/15 05:52:14;;;;;;;14.80;13.27;;;;;;;22.12;64.92;97685.09;5071118;28;20035;-77
2022/08/15 05:55:16;;;;;;;13.80;12.43;;;;;;;21.72;69.04;97679.00;5053618;28;20028;-77
2022/08/15 05:58:09;;;;;;;14.07;12.77;;;;;;;21.80;67.23;97685.41;5052806;28;20503;-77
2022/08/15 06:00:36;;;;;;;15.65;14.02;;;;;;;21.28;68.08;97680.13;5053883;28;20028;-76
2022/08/15 06:03:08;;;;;;;15.85;12.95;;;;;;;21.27;69.22;97684.00;5062098;28;20036;-76
2022/08/15 06:05:38;;;;;;;12.57;11.32;;;;;;;21.78;64.59;97687.66;5066378;28;20025;-77
2022/08/15 06:08:17;;;;;;;16.00;14.40;;;;;;;21.51;68.88;97664.88;5065047;28;20067;-76
2022/08/15 06:10:49;;;;;;;14.13;12.80;;;;;;;21.31;68.21;97668.59;5071673;28;20044;-76
2022/08/15 06:13:30;;;;;;;14.63;12.60;;;;;;;21.12;68.86;97654.91;5067029;28;20024;-76
2022/08/15 06:16:17;;;;;;;16.50;12.30;;;;;;;21.16;68.65;97670.16;5060937;28;20033;-76
2022/08/15 06:18:44;;;;;;;11.63;10.50;;;;;;;21.79;63.89;97652.03;5058859;28;20052;-76
2022/08/15 06:21:30;;;;;;;13.63;12.23;;;;;;;21.87;68.77;97680.19;5059004;28;20663;-77
2022/08/15 06:24:15;;;;;;;;;;;;;;;21.74;66.89;97668.56;5059095;28;20025;-76
2022/08/15 06:27:03;;;;;;;11.40;10.30;;;;;;;22.10;64.53;97679.25;5062955;28;19923;-76
2022/08/15 06:29:48;;;;;;;11.43;10.38;;;;;;;22.44;65.50;97685.06;5059870;28;20103;-76
2022/08/15 06:32:20;;;;;;;12.48;11.25;;;;;;;22.26;66.10;97677.28;5066165;28;20029;-77
2022/08/15 06:35:13;;;;;;;12.25;11.05;;;;;;;22.19;65.83;97670.91;5059504;28;20040;-76
2022/08/15 06:38:01;;;;;;;11.38;10.38;;;;;;;22.68;62.65;97676.69;5068889;28;20017;-76
2022/08/15 06:40:49;;;;;;;20.77;11.88;;;;;;;22.29;65.37;97659.47;5063142;28;20025;-76
2022/08/15 06:43:15;;;;;;;12.02;10.63;;;;;;;22.36;64.26;97679.47;5072163;28;20063;-76
2022/08/15 06:45:46;;;;;;;12.98;11.23;;;;;;;22.37;63.81;97678.31;5063887;28;20064;-76
2022/08/15 06:48:25;;;;;;;12.68;11.27;;;;;;;22.53;63.45;97664.69;5067618;28;20197;-76
2022/08/15 06:50:56;;;;;;;12.68;11.48;;;;;;;22.36;64.08;97676.75;5067699;28;20025;-77
2022/08/15 06:53:22;;;;;;;13.50;10.80;;;;;;;22.42;62.97;97685.41;5067949;28;20044;-76
2022/08/15 06:55:52;;;;;;;11.18;9.98;;;;;;;22.83;62.22;97684.00;5064008;28;20468;-76
2022/08/15 06:58:44;;;;;;;11.35;10.35;;;;;;;22.89;63.28;97669.78;5071019;28;20107;-76
2022/08/15 07:01:27;;;;;;;11.48;10.38;;;;;;;23.20;61.19;97679.75;5067985;28;20144;-77
2022/08/15 07:04:17;;;;;;;11.88;9.57;;;;;;;23.45;62.66;97670.16;5064237;28;20020;-77
2022/08/15 07:07:17;;;;;;;11.18;10.18;;;;;;;23.33;60.75;97653.97;5063876;28;20037;-77
2022/08/15 07:10:04;;;;;;;12.10;10.38;;;;;;;23.38;62.44;97678.19;5072380;28;20032;-76
2022/08/15 07:12:42;;;;;;;12.82;11.32;;;;;;;23.13;63.46;97674.16;5064410;28;20102;-77
2022/08/15 07:15:19;;;;;;;11.73;10.52;;;;;;;23.33;62.43;97659.41;5061191;28;20029;-77
2022/08/15 07:17:57;;;;;;;13.40;11.35;;;;;;;23.50;61.63;97675.28;5061063;28;20036;-76
2022/08/15 07:20:22;;;;;;;11.68;10.50;;;;;;;23.54;61.08;97661.75;5048818;28;20056;-77
2022/08/15 07:22:47;;;;;;;10.27;9.27;;;;;;;23.57;60.65;97658.28;5033546;28;20032;-77
2022/08/15 07:25:21;;;;;;;12.75;10.55;;;;;;;23.91;59.89;97651.91;5046811;28;20040;-77
2022/08/15 07:27:57;;;;;;;11.13;10.00;;;;;;;24.07;61.96;97668.16;5051263;28;20024;-77
2022/08/15 07:30:44;;;;;;;10.35;9.02;;;;;;;24.29;58.77;97675.50;5058846;28;20134;-77
2022/08/15 07:33:27;;;;;;;11.00;9.90;;;;;;;24.28;59.05;97673.94;5062586;28;20032;-77
2022/08/15 07:36:20;;;;;;;10.32;9.13;;;;;;;24.40;60.35;97676.44;5064004;28;20087;-77
2022/08/15 07:38:47;;;;;;;11.30;10.00;;;;;;;24.49;59.76;97677.78;5060193;28;20447;-77
2022/08/15 07:41:12;;;;;;;11.32;10.18;;;;;;;24.61;58.92;97671.31;5062034;28;20579;-77
2022/08/15 07:43:38;;;;;;;10.73;9.63;;;;;;;24.91;57.62;97679.56;5055551;28;20104;-77
2022/08/15 07:46:10;;;;;;;10.55;9.63;;;;;;;24.96;57.83;97674.56;5042973;28;20487;-77
2022/08/15 07:48:36;;;;;;;10.85;9.63;;;;;;;25.05;58.10;97661.38;5056265;28;20453;-77
2022/08/15 07:51:14;;;;;;;9.98;9.15;;;;;;;25.12;57.75;97680.59;5062918;28;20430;-77
2022/08/15 07:53:53;;;;;;;17.92;11.18;;;;;;;25.16;56.65;97667.78;5057978;28;20032;-77
2022/08/15 07:56:19;;;;;;;10.90;9.80;;;;;;;25.29;57.82;97685.50;5059477;28;21693;-77
2022/08/15 07:58:45;;;;;;;10.88;9.77;;;;;;;25.40;56.10;97682.91;5044058;28;20488;-77
2022/08/15 08:01:27;;;;;;;9.88;8.90;;;;;;;25.55;55.86;97686.59;5059322;28;20035;-77
2022/08/15 08:04:20;;;;;;;10.95;9.85;;;;;;;25.51;56.32;97680.31;5055603;28;20052;-77
2022/08/15 08:06:58;;;;;;;10.38;9.23;;;;;;;25.60;55.69;97669.88;5059246;28;20508;-77
2022/08/15 08:09:26;;;;;;;10.45;9.55;;;;;;;25.64;56.39;97674.19;5045904;28;20051;-77
2022/08/15 08:12:22;;;;;;;13.32;9.98;;;;;;;25.45;56.75;97673.59;5062625;28;20071;-77
2022/08/15 08:15:18;;;;;;;10.60;9.48;;;;;;;25.26;56.74;97653.47;5057947;28;20476;-76
2022/08/15 08:17:45;;;;;;;11.52;9.98;;;;;;;25.61;55.85;97671.44;5059693;28;20028;-76
2022/08/15 08:20:14;;;;;;;11.35;10.35;;;;;;;25.49;56.38;97668.97;5078212;28;20032;-77
2022/08/15 08:22:51;;;;;;;10.80;9.88;;;;;;;25.18;57.20;97626.44;5059902;28;20089;-77
2022/08/15 08:25:24;;;;;;;14.35;10.10;;;;;;;25.48;57.19;97667.38;5059109;28;20027;-76
2022/08/15 08:28:09;;;;;;;10.38;9.45;;;;;;;25.52;57.10;97668.19;5053900;28;20054;-76
2022/08/15 08:30:57;;;;;;;12.00;10.68;;;;;;;25.27;57.20;97638.63;5055719;28;20036;-77
2022/08/15 08:33:52;;;;;;;15.32;11.25;;;;;;;25.41;57.56;97667.28;5064534;28;20029;-77
2022/08/15 08:36:40;;;;;;;10.90;9.90;;;;;;;25.24;56.83;97655.78;5055354;28;20033;-77
2022/08/15 08:39:22;;;;;;;12.60;11.35;;;;;;;25.14;56.99;97636.56;5053145;28;20035;-78
2022/08/15 08:41:58;;;;;;;14.10;11.30;;;;;;;25.79;55.87;97656.00;5061276;28;20032;-78
2022/08/15 08:44:23;;;;;;;14.77;10.95;;;;;;;25.76;56.73;97651.25;5052497;28;20555;-78
2022/08/15 08:46:54;;;;;;;12.00;10.82;;;;;;;25.74;56.49;97656.31;5062554;28;20032;-78
2022/08/15 08:49:57;;;;;;;12.38;10.15;;;;;;;25.78;56.27;97633.31;5060490;28;20028;-78
2022/08/15 08:52:40;;;;;;;14.10;12.18;;;;;;;26.03;55.73;97658.94;5061621;28;20040;-78
2022/08/15 08:55:31;;;;;;;11.18;10.13;;;;;;;26.04;55.83;97656.97;5062841;28;20034;-78
2022/08/15 08:58:04;;;;;;;14.52;11.05;;;;;;;26.11;55.23;97646.13;5061590;28;20055;-78
2022/08/15 09:00:41;;;;;;;11.10;10.02;;;;;;;26.21;55.21;97648.16;5056365;28;20028;-78
2022/08/15 09:03:17;;;;;;;10.52;9.52;;;;;;;26.28;54.83;97652.88;5056549;28;20428;-78
2022/08/15 09:05:51;;;;;;;11.52;10.35;;;;;;;26.30;56.86;97656.81;5053291;28;20677;-78
2022/08/15 09:08:26;;;;;;;14.85;11.27;;;;;;;26.49;54.90;97666.75;5048083;28;20020;-78
2022/08/15 09:10:57;;;;;;;12.25;10.18;;;;;;;26.44;53.91;97654.19;5055553;28;20045;-77
2022/08/15 09:13:34;;;;;;;11.95;10.73;;;;;;;26.38;54.23;97657.66;5053694;28;20037;-78
2022/08/15 09:16:08;;;;;;;10.82;9.73;;;;;;;26.26;53.68;97663.44;5052129;28;20082;-77
2022/08/15 09:18:41;;;;;;;11.55;10.45;;;;;;;26.28;53.64;97672.84;5052718;28;20111;-77
2022/08/15 09:21:06;;;;;;;12.13;9.40;;;;;;;26.21;53.23;97669.28;5052297;28;20028;-77
2022/08/15 09:23:37;;;;;;;10.80;9.80;;;;;;;26.27;52.61;97673.22;5036286;28;20404;-77
2022/08/15 09:26:21;;;;;;;10.27;9.30;;;;;;;26.52;51.99;97674.97;5036633;28;20028;-78
2022/08/15 09:29:21;;;;;;;9.57;8.57;;;;;;;26.48;52.42;97684.31;5057574;28;20025;-78
2022/08/15 09:31:57;;;;;;;14.38;9.20;;;;;;;26.57;51.97;97684.78;5051004;28;20047;-78
2022/08/15 09:34:51;;;;;;;10.30;9.32;;;;;;;26.58;51.94;97675.41;5057850;28;20148;-77
2022/08/15 09:37:30;;;;;;;10.60;8.90;;;;;;;26.63;51.52;97684.03;5055976;28;20032;-77
2022/08/15 09:40:28;;;;;;;10.52;9.40;;;;;;;26.67;51.29;97686.78;5049679;28;20111;-78
2022/08/15 09:43:10;;;;;;;10.00;8.95;;;;;;;26.72;52.12;97676.25;5039914;28;20067;-78
2022/08/15 09:45:54;;;;;;;9.95;8.85;;;;;;;26.83;50.80;97676.34;5050758;28;20039;-78
2022/08/15 09:49:00;;;;;;;10.35;9.23;;;;;;;26.92;50.62;97674.06;5051634;28;20551;-78
2022/08/15 09:52:12;;;;;;;11.98;9.20;;;;;;;26.98;50.35;97671.72;5052393;28;20488;-78
2022/08/15 09:54:49;;;;;;;10.98;9.00;;;;;;;27.00;50.66;97677.59;5021432;28;20396;-78
2022/08/15 09:57:31;;;;;;;11.93;8.98;;;;;;;27.09;50.28;97678.03;4998980;28;20484;-78
2022/08/15 10:00:15;;;;;;;13.32;9.63;;;;;;;26.96;50.97;97674.06;5040846;28;20105;-78
2022/08/15 10:02:43;;;;;;;10.00;8.80;;;;;;;27.01;51.88;97670.97;5053560;28;20041;-78
2022/08/15 10:05:28;;;;;;;10.43;9.43;;;;;;;27.17;50.47;97668.69;5036662;28;20479;-78
2022/08/15 10:08:01;;;;;;;10.32;9.25;;;;;;;27.30;50.45;97678.13;5057892;28;20033;-78
2022/08/15 10:10:35;;;;;;;10.20;9.30;;;;;;;27.37;51.31;97669.94;5052155;28;20078;-78
2022/08/15 10:13:06;;;;;;;11.38;10.38;;;;;;;27.37;50.31;97676.22;5058233;28;20060;-78
2022/08/15 10:15:40;;;;;;;10.40;9.50;;;;;;;27.57;50.08;97659.41;5057899;28;20024;-79
2022/08/15 10:18:08;;;;;;;11.30;10.30;;;;;;;27.54;51.60;97669.25;5054575;28;20017;-79
2022/08/15 10:20:33;;;;;;;10.48;9.45;;;;;;;27.79;50.35;97669.25;5054913;28;20484;-78
2022/08/15 10:22:59;;;;;;;11.90;10.00;;;;;;;27.78;50.05;97660.28;5058772;28;20025;-78
2022/08/15 10:25:36;;;;;;;10.13;9.23;;;;;;;27.65;50.18;97655.53;5052542;28;20032;-78
2022/08/15 10:28:11;;;;;;;10.98;9.82;;;;;;;27.61;50.35;97662.97;5054744;28;20028;-78
2022/08/15 10:30:45;;;;;;;12.27;10.93;;;;;;;27.43;50.91;97657.47;5057368;28;20602;-78
2022/08/15 10:33:32;;;;;;;13.38;10.43;;;;;;;27.27;51.27;97667.94;5057308;28;20361;-78
2022/08/15 10:36:13;;;;;;;12.40;10.60;;;;;;;27.26;51.36;97678.09;5058911;28;20025;-78
2022/08/15 10:38:44;;;;;;;13.18;10.57;;;;;;;27.20;51.58;97665.16;5058609;28;20472;-78
2022/08/15 10:41:25;;;;;;;12.55;11.20;;;;;;;27.17;51.80;97671.44;5045396;28;20039;-78
2022/08/15 10:44:09;;;;;;;14.05;10.70;;;;;;;27.16;51.80;97678.06;5060568;28;20024;-78
2022/08/15 10:46:38;;;;;;;10.68;9.40;;;;;;;27.07;52.14;97677.63;5058407;28;20057;-78
2022/08/15 10:49:21;;;;;;;12.15;10.95;;;;;;;27.16;52.36;97684.34;5056207;28;20028;-78
2022/08/15 10:52:18;;;;;;;11.25;10.18;;;;;;;27.06;52.14;97660.44;5056811;28;20027;-78
2022/08/15 10:54:55;;;;;;;11.55;10.38;;;;;;;27.29;52.03;97682.81;5060369;28;20075;-78
2022/08/15 10:57:24;;;;;;;11.80;10.65;;;;;;;27.09;51.95;97664.34;5065390;28;20021;-78
2022/08/15 10:59:54;;;;;;;12.25;9.45;;;;;;;27.20;51.85;97668.69;5059027;28;20021;-78
2022/08/15 11:02:38;;;;;;;10.07;9.23;;;;;;;27.30;51.90;97678.13;5063634;28;20419;-78
2022/08/15 11:05:09;;;;;;;10.45;9.25;;;;;;;27.19;51.86;97667.16;5068099;28;20028;-78
2022/08/15 11:07:37;;;;;;;9.82;8.90;;;;;;;26.97;52.15;97662.75;5059782;28;20128;-78
2022/08/15 11:10:12;;;;;;;9.95;8.95;;;;;;;27.07;52.03;97678.44;5027123;28;20497;-78
2022/08/15 11:12:43;;;;;;;10.60;8.48;;;;;;;27.14;51.64;97674.94;5055610;28;20111;-78
2022/08/15 11:15:32;;;;;;;9.82;8.90;;;;;;;27.20;51.25;97662.44;5057107;28;20116;-78
2022/08/15 11:18:08;;;;;;;10.10;8.55;;;;;;;27.06;51.14;97663.19;5061516;28;20028;-78
2022/08/15 11:20:42;;;;;;;9.88;8.13;;;;;;;27.22;50.89;97666.34;5056093;28;20017;-78
2022/08/15 11:23:09;;;;;;;8.10;7.35;;;;;;;27.52;50.25;97663.34;5058160;28;20032;-78
2022/08/15 11:25:37;;;;;;;8.95;8.05;;;;;;;27.68;49.94;97660.22;5061642;28;20051;-78
2022/08/15 11:28:19;;;;;;;8.52;7.65;;;;;;;27.77;49.80;97653.22;5060200;28;20024;-79
2022/08/15 11:30:44;;;;;;;7.15;6.50;;;;;;;27.69;49.72;97648.09;5055981;28;20388;-78
2022/08/15 11:33:33;;;;;;;6.72;6.18;;;;;;;27.61;49.71;97658.25;5062968;28;20103;-78
2022/08/15 11:36:32;;;;;;;8.07;6.25;;;;;;;27.89;49.84;97660.28;5078869;28;20028;-78
2022/08/15 11:39:13;;;;;;;6.82;6.22;;;;;;;28.14;48.68;97661.88;5037327;28;20051;-78
2022/08/15 11:41:41;;;;;;;6.88;6.35;;;;;;;28.33;48.20;97676.38;5054427;28;20070;-78
2022/08/15 11:44:09;;;;;;;7.82;7.05;;;;;;;28.23;47.94;97660.69;5060974;28;20338;-78
2022/08/15 11:46:36;;;;;;;6.75;6.18;;;;;;;28.36;47.93;97657.16;5061431;28;20035;-78
2022/08/15 11:49:11;;;;;;;7.85;6.38;;;;;;;28.63;47.44;97666.56;5054482;28;20028;-79
2022/08/15 11:51:42;;;;;;;8.63;6.53;;;;;;;28.79;47.18;97666.91;5049734;28;20034;-79
2022/08/15 11:54:10;;;;;;;10.00;6.30;;;;;;;29.09;46.63;97682.94;5060817;28;20056;-79